Time;durP1;ratioP1;P1;durP2;ratioP2;P2;SDS_P1;SDS_P2;PMS_P1;PMS_P2;Temp;Humidity;BMP_temperature;BMP_pressure;BME280_temperature;BME280_humidity;BME280_pressure;Samples;Min_cycle;Max_cycle;Signal;HPM_P1;HPM_P2
2023/04/11 00:00:44;;;;;;;2.00;1.80;;;19.80;48.70;;;;;;4991748;28;20288;-70
2023/04/11 00:03:09;;;;;;;1.75;1.58;;;19.80;48.70;;;;;;4985412;28;20196;-70
2023/04/11 00:05:35;;;;;;;1.63;1.52;;;19.80;48.70;;;;;;4991735;28;20211;-70
2023/04/11 00:08:01;;;;;;;1.42;1.33;;;19.80;48.70;;;;;;4991741;28;20690;-70
2023/04/11 00:10:27;;;;;;;1.40;1.30;;;19.80;48.70;;;;;;4982556;28;20217;-70
2023/04/11 00:12:56;;;;;;;1.50;1.40;;;19.80;48.70;;;;;;4985442;28;20196;-70
2023/04/11 00:15:23;;;;;;;2.15;1.80;;;19.80;48.70;;;;;;4984556;28;20669;-70
2023/04/11 00:17:49;;;;;;;1.77;1.40;;;19.80;48.80;;;;;;4978972;28;20192;-70
2023/04/11 00:20:15;;;;;;;1.40;1.30;;;19.80;48.70;;;;;;4966261;28;20178;-70
2023/04/11 00:22:42;;;;;;;2.17;1.85;;;19.80;48.80;;;;;;4982766;28;20188;-70
2023/04/11 00:25:08;;;;;;;2.33;1.67;;;19.80;48.70;;;;;;4987639;28;20219;-70
2023/04/11 00:27:34;;;;;;;1.50;1.40;;;19.80;48.70;;;;;;4983135;28;20307;-70
2023/04/11 00:30:00;;;;;;;1.58;1.48;;;19.80;48.80;;;;;;4991872;28;20180;-70
2023/04/11 00:32:26;;;;;;;1.75;1.60;;;19.80;48.70;;;;;;4990863;28;20594;-70
2023/04/11 00:34:54;;;;;;;1.52;1.42;;;19.80;48.70;;;;;;4986139;28;20185;-70
2023/04/11 00:37:22;;;;;;;1.83;1.67;;;19.80;48.80;;;;;;4980661;28;20272;-70
2023/04/11 00:39:49;;;;;;;1.70;1.60;;;19.70;48.70;;;;;;4987090;28;20192;-70
2023/04/11 00:42:16;;;;;;;1.52;1.42;;;19.70;48.70;;;;;;4987864;28;20208;-70
2023/04/11 00:44:42;;;;;;;1.40;1.30;;;19.80;48.80;;;;;;4987622;28;20193;-70
2023/04/11 00:47:08;;;;;;;1.52;1.42;;;19.70;48.70;;;;;;4963974;28;20213;-70
2023/04/11 00:49:35;;;;;;;1.25;1.23;;;19.80;48.80;;;;;;4990684;28;20188;-71
2023/04/11 00:52:02;;;;;;;1.70;1.60;;;19.70;48.70;;;;;;4983117;28;20209;-70
2023/04/11 00:54:30;;;;;;;1.50;1.40;;;19.80;48.80;;;;;;4981306;28;20199;-70
2023/04/11 00:57:03;;;;;;;2.03;1.52;;;19.80;48.80;;;;;;4964229;28;20293;-70
2023/04/11 00:59:32;;;;;;;1.60;1.50;;;19.80;48.80;;;;;;4990049;28;20197;-70
2023/04/11 01:01:59;;;;;;;1.73;1.63;;;19.70;48.80;;;;;;4982820;28;20219;-70
2023/04/11 01:04:25;;;;;;;1.50;1.40;;;19.70;48.80;;;;;;4991289;28;20185;-70
2023/04/11 01:07:02;;;;;;;1.55;1.20;;;19.70;48.80;;;;;;4966939;28;20556;-70
2023/04/11 01:09:31;;;;;;;2.08;1.52;;;19.70;48.80;;;;;;4989382;28;20196;-70
2023/04/11 01:11:58;;;;;;;1.55;1.45;;;19.70;48.80;;;;;;4979708;28;20252;-70
2023/04/11 01:14:26;;;;;;;1.70;1.58;;;19.70;48.80;;;;;;4980730;28;20189;-70
2023/04/11 01:16:52;;;;;;;1.60;1.50;;;19.70;48.80;;;;;;4991110;28;20185;-70
2023/04/11 01:19:20;;;;;;;1.60;1.50;;;19.70;48.80;;;;;;4990786;28;20220;-70
2023/04/11 01:21:49;;;;;;;1.40;1.30;;;19.80;48.90;;;;;;4960653;28;20206;-70
2023/04/11 01:24:15;;;;;;;1.48;1.38;;;19.70;48.80;;;;;;4952167;29;20183;-70
2023/04/11 01:26:41;;;;;;;1.15;1.15;;;19.70;48.80;;;;;;4990662;28;20212;-70
2023/04/11 01:29:08;;;;;;;1.75;1.65;;;19.70;48.80;;;;;;4982885;28;20189;-70
2023/04/11 01:31:34;;;;;;;1.55;1.20;;;19.70;48.80;;;;;;4990515;28;20205;-70
2023/04/11 01:34:01;;;;;;;1.50;1.40;;;19.70;48.90;;;;;;4991180;28;20208;-70
2023/04/11 01:36:30;;;;;;;1.65;1.50;;;19.70;48.90;;;;;;4982750;28;20189;-70
2023/04/11 01:38:56;;;;;;;2.13;1.30;;;19.70;48.90;;;;;;4992090;28;20196;-70
2023/04/11 01:41:25;;;;;;;1.02;1.00;;;19.70;48.90;;;;;;4985412;28;20299;-70
2023/04/11 01:43:51;;;;;;;1.50;1.40;;;19.70;48.90;;;;;;4987568;28;20193;-70
2023/04/11 01:46:18;;;;;;;1.30;1.20;;;19.70;48.90;;;;;;4995728;28;20193;-70
2023/04/11 01:48:44;;;;;;;1.27;1.25;;;19.70;48.90;;;;;;4990905;28;20213;-70
2023/04/11 01:51:11;;;;;;;1.45;1.30;;;19.70;48.90;;;;;;4989563;28;20255;-70
2023/04/11 01:53:37;;;;;;;1.30;1.20;;;19.70;48.90;;;;;;4991581;28;20200;-70
2023/04/11 01:56:03;;;;;;;1.27;1.23;;;19.70;48.90;;;;;;4972637;28;20177;-70
2023/04/11 01:58:28;;;;;;;1.38;1.30;;;19.70;48.90;;;;;;4985874;28;20656;-70
2023/04/11 02:00:54;;;;;;;1.40;1.30;;;19.70;49.00;;;;;;4985951;28;20292;-70
2023/04/11 02:03:21;;;;;;;1.50;1.40;;;19.70;48.90;;;;;;4987687;28;20580;-70
2023/04/11 02:05:47;;;;;;;1.45;1.10;;;19.70;48.90;;;;;;4982176;28;20193;-70
2023/04/11 02:08:12;;;;;;;1.48;1.38;;;19.70;48.90;;;;;;4958388;28;20280;-70
2023/04/11 02:10:38;;;;;;;1.45;1.35;;;19.70;48.90;;;;;;4975435;28;20214;-70
2023/04/11 02:13:04;;;;;;;1.40;1.30;;;19.70;48.90;;;;;;4987656;28;20185;-70
2023/04/11 02:15:31;;;;;;;1.80;1.30;;;19.70;48.90;;;;;;4968314;28;20216;-71
2023/04/11 02:17:58;;;;;;;1.30;1.20;;;19.70;49.00;;;;;;4987543;28;20252;-70
2023/04/11 02:20:25;;;;;;;1.30;1.20;;;19.70;49.00;;;;;;4990333;28;20216;-70
2023/04/11 02:22:51;;;;;;;1.15;1.10;;;19.70;49.00;;;;;;4986069;28;20193;-70
2023/04/11 02:25:17;;;;;;;1.00;1.00;;;19.70;49.00;;;;;;4970545;28;20193;-70
2023/04/11 02:27:43;;;;;;;1.48;1.13;;;19.70;49.00;;;;;;4985529;28;20213;-70
2023/04/11 02:30:09;;;;;;;1.40;1.30;;;19.70;49.00;;;;;;4993755;28;20177;-70
2023/04/11 02:32:36;;;;;;;1.40;1.30;;;19.70;49.10;;;;;;4993240;28;20185;-70
2023/04/11 02:35:08;;;;;;;1.30;1.20;;;19.70;49.00;;;;;;4994749;28;20188;-70
2023/04/11 02:37:34;;;;;;;1.40;1.30;;;19.70;49.00;;;;;;4985485;28;20197;-70
2023/04/11 02:40:01;;;;;;;1.27;1.17;;;19.70;49.00;;;;;;4993334;28;20192;-70
2023/04/11 02:42:27;;;;;;;1.60;1.50;;;19.70;49.00;;;;;;4993292;28;20211;-70
2023/04/11 02:44:55;;;;;;;1.17;1.08;;;19.70;49.00;;;;;;4986518;28;20559;-70
2023/04/11 02:47:25;;;;;;;1.35;1.20;;;19.70;49.10;;;;;;4993153;28;20236;-70
2023/04/11 02:49:53;;;;;;;1.30;1.20;;;19.70;49.10;;;;;;4977164;28;20603;-70
2023/04/11 02:52:25;;;;;;;1.00;0.93;;;19.70;49.10;;;;;;4977803;28;20237;-70
2023/04/11 02:54:51;;;;;;;0.90;0.90;;;19.70;49.10;;;;;;4993205;28;20243;-70
2023/04/11 02:57:16;;;;;;;1.35;1.20;;;19.70;49.20;;;;;;4993340;28;20193;-70
2023/04/11 02:59:43;;;;;;;1.10;1.00;;;19.70;49.20;;;;;;4992898;28;20197;-70
2023/04/11 03:02:09;;;;;;;1.23;1.13;;;19.70;49.20;;;;;;4992947;28;20208;-70
2023/04/11 03:04:35;;;;;;;1.38;1.27;;;19.70;49.20;;;;;;4984841;28;20212;-70
2023/04/11 03:07:14;;;;;;;1.10;1.10;;;19.70;49.20;;;;;;4992929;28;20300;-70
2023/04/11 03:09:39;;;;;;;1.13;1.13;;;19.70;49.20;;;;;;4991705;28;20192;-70
2023/04/11 03:12:06;;;;;;;1.33;1.23;;;19.70;49.20;;;;;;4973103;28;20205;-70
2023/04/11 03:14:33;;;;;;;1.40;1.30;;;19.70;49.20;;;;;;4989196;28;20189;-70
2023/04/11 03:16:59;;;;;;;1.13;1.10;;;19.70;49.20;;;;;;4981649;28;20186;-70
2023/04/11 03:19:26;;;;;;;1.00;1.00;;;19.70;49.20;;;;;;4989493;28;20216;-70
2023/04/11 03:21:52;;;;;;;1.10;1.02;;;19.70;49.20;;;;;;4980664;28;20225;-70
2023/04/11 03:24:18;;;;;;;1.30;1.20;;;19.70;49.30;;;;;;4988657;28;20184;-70
2023/04/11 03:26:44;;;;;;;1.40;1.30;;;19.70;49.30;;;;;;4992068;28;20188;-70
2023/04/11 03:29:13;;;;;;;1.58;1.33;;;19.70;49.30;;;;;;5009116;28;20188;-70
2023/04/11 03:31:56;;;;;;;1.40;1.30;;;19.70;49.30;;;;;;4988055;28;20201;-70
2023/04/11 03:34:22;;;;;;;2.15;1.38;;;19.70;49.30;;;;;;4980439;28;20747;-70
2023/04/11 03:36:49;;;;;;;1.45;1.27;;;19.70;49.40;;;;;;4989223;28;20582;-70
2023/04/11 03:39:15;;;;;;;1.30;1.20;;;19.70;49.40;;;;;;4980980;28;20731;-70
2023/04/11 03:41:40;;;;;;;1.15;1.05;;;19.70;49.40;;;;;;4988788;28;20216;-70
2023/04/11 03:44:09;;;;;;;0.80;0.80;;;19.70;49.50;;;;;;4987011;28;20181;-70
2023/04/11 03:46:36;;;;;;;1.88;1.40;;;19.70;49.60;;;;;;4984300;28;20186;-70
2023/04/11 03:49:02;;;;;;;1.00;1.00;;;19.70;49.60;;;;;;4991953;28;20212;-70
2023/04/11 03:51:28;;;;;;;1.23;1.23;;;19.60;49.40;;;;;;4983605;28;20209;-70
2023/04/11 03:54:01;;;;;;;1.00;0.90;;;19.70;49.60;;;;;;4992087;28;20185;-70
2023/04/11 03:56:34;;;;;;;1.13;1.00;;;19.70;49.60;;;;;;4960963;28;20225;-70
2023/04/11 03:59:00;;;;;;;1.00;1.00;;;19.60;49.50;;;;;;4976103;28;20219;-70
2023/04/11 04:01:32;;;;;;;1.10;1.08;;;19.60;49.60;;;;;;4991078;28;20220;-70
2023/04/11 04:04:03;;;;;;;1.00;1.00;;;19.60;49.50;;;;;;4991941;28;20185;-70
2023/04/11 04:06:30;;;;;;;0.80;0.80;;;19.60;49.50;;;;;;4966983;28;20284;-70
2023/04/11 04:08:58;;;;;;;0.93;0.93;;;19.70;49.70;;;;;;4980665;28;20209;-70
2023/04/11 04:11:24;;;;;;;1.23;1.13;;;19.60;50.20;;;;;;4987922;28;20208;-70
2023/04/11 04:13:54;;;;;;;1.23;1.13;;;19.70;49.70;;;;;;4976288;28;20283;-70
2023/04/11 04:16:20;;;;;;;0.88;0.80;;;19.70;50.40;;;;;;4991853;28;20216;-70
2023/04/11 04:18:51;;;;;;;1.25;1.15;;;19.60;49.70;;;;;;4975718;28;20335;-70
2023/04/11 04:21:19;;;;;;;1.30;1.20;;;19.60;49.80;;;;;;4983095;28;20240;-70
2023/04/11 04:23:48;;;;;;;0.90;0.90;;;19.70;49.80;;;;;;4991803;28;20199;-70
2023/04/11 04:26:30;;;;;;;0.90;0.90;;;19.70;49.80;;;;;;4983274;28;20268;-70
2023/04/11 04:29:09;;;;;;;0.95;0.90;;;19.70;49.90;;;;;;4970857;28;20227;-70
2023/04/11 04:31:51;;;;;;;1.10;0.77;;;19.70;49.80;;;;;;4988314;28;20253;-70
2023/04/11 04:34:20;;;;;;;0.85;0.82;;;19.60;49.80;;;;;;4987341;28;20180;-70
2023/04/11 04:36:48;;;;;;;0.95;0.95;;;19.60;49.80;;;;;;4991260;28;20216;-70
2023/04/11 04:39:19;;;;;;;1.23;1.15;;;19.60;49.80;;;;;;4968058;28;20235;-70
2023/04/11 04:41:56;;;;;;;0.85;0.85;;;19.60;49.90;;;;;;4980031;28;20209;-70
2023/04/11 04:44:25;;;;;;;0.90;0.90;;;19.60;50.50;;;;;;4964010;28;20180;-70
2023/04/11 04:46:54;;;;;;;1.00;1.00;;;19.60;49.90;;;;;;4975210;28;20208;-70
2023/04/11 04:49:23;;;;;;;0.80;0.80;;;19.60;50.00;;;;;;4975393;28;20195;-70
2023/04/11 04:51:48;;;;;;;0.80;0.80;;;19.60;49.90;;;;;;4966615;28;20228;-70
2023/04/11 04:54:17;;;;;;;0.73;0.73;;;19.60;50.00;;;;;;4991113;28;20227;-70
2023/04/11 04:56:44;;;;;;;1.17;1.08;;;19.60;49.90;;;;;;4982929;28;20190;-70
2023/04/11 04:59:14;;;;;;;0.73;0.73;;;19.60;50.00;;;;;;4983203;28;20192;-70
2023/04/11 05:01:41;;;;;;;0.90;0.90;;;19.60;50.00;;;;;;4973373;28;20229;-70
2023/04/11 05:04:08;;;;;;;1.08;1.00;;;19.60;50.00;;;;;;4991454;28;20187;-70
2023/04/11 05:06:48;;;;;;;1.00;1.00;;;19.60;50.00;;;;;;4983024;28;20268;-70
2023/04/11 05:09:15;;;;;;;0.90;0.90;;;19.60;50.00;;;;;;4983311;28;20181;-70
2023/04/11 05:11:41;;;;;;;0.90;0.90;;;19.60;50.00;;;;;;4990566;28;20231;-70
2023/04/11 05:14:09;;;;;;;1.05;0.93;;;19.60;50.00;;;;;;4992753;28;20188;-70
2023/04/11 05:16:36;;;;;;;1.15;1.13;;;19.60;50.00;;;;;;4994873;28;20185;-70
2023/04/11 05:19:02;;;;;;;0.90;0.90;;;19.60;50.00;;;;;;4986805;28;20180;-70
2023/04/11 05:21:31;;;;;;;0.73;0.73;;;19.60;50.00;;;;;;4986240;28;20692;-70
2023/04/11 05:23:57;;;;;;;0.90;0.90;;;19.60;50.70;;;;;;4991672;28;20194;-70
2023/04/11 05:26:23;;;;;;;0.70;0.70;;;19.60;50.10;;;;;;4968198;28;20187;-70
2023/04/11 05:28:49;;;;;;;0.75;0.75;;;19.60;50.00;;;;;;4993742;28;20259;-70
2023/04/11 05:31:19;;;;;;;0.80;0.80;;;19.60;50.10;;;;;;4988290;28;20221;-70
2023/04/11 05:33:45;;;;;;;0.80;0.80;;;19.60;50.20;;;;;;4975094;28;20259;-70
2023/04/11 05:36:13;;;;;;;0.80;0.80;;;19.60;50.30;;;;;;4966006;28;20226;-70
2023/04/11 05:38:40;;;;;;;0.80;0.80;;;19.60;50.30;;;;;;4967021;28;20189;-70
2023/04/11 05:41:07;;;;;;;0.88;0.88;;;19.60;50.30;;;;;;4965016;28;20305;-70
2023/04/11 05:43:34;;;;;;;0.80;0.80;;;19.60;50.20;;;;;;4964508;28;20239;-70
2023/04/11 05:46:01;;;;;;;0.77;0.77;;;19.60;50.20;;;;;;4994514;28;20185;-70
2023/04/11 05:48:26;;;;;;;0.90;0.90;;;19.60;50.20;;;;;;4986262;28;20315;-70
2023/04/11 05:50:52;;;;;;;0.80;0.80;;;19.60;50.20;;;;;;4994098;28;20274;-70
2023/04/11 05:53:18;;;;;;;0.80;0.80;;;19.60;50.20;;;;;;4977476;28;20281;-70
2023/04/11 05:55:44;;;;;;;0.93;0.93;;;19.60;50.20;;;;;;4992299;28;20192;-70
2023/04/11 05:58:10;;;;;;;0.52;0.50;;;19.60;50.20;;;;;;4994287;28;20188;-70
2023/04/11 06:00:37;;;;;;;0.75;0.75;;;19.60;50.20;;;;;;4993927;28;20290;-70
2023/04/11 06:03:04;;;;;;;0.55;0.55;;;19.60;50.20;;;;;;4993919;28;20196;-70
2023/04/11 06:05:31;;;;;;;0.80;0.80;;;19.60;50.20;;;;;;4995473;28;20193;-70
2023/04/11 06:07:58;;;;;;;0.70;0.70;;;19.60;50.20;;;;;;4993821;28;20291;-70
2023/04/11 06:10:24;;;;;;;0.75;0.75;;;19.60;50.20;;;;;;4986102;28;20310;-70
2023/04/11 06:12:51;;;;;;;0.60;0.60;;;19.60;50.20;;;;;;4977637;28;20276;-70
2023/04/11 06:15:17;;;;;;;0.70;0.70;;;19.60;50.20;;;;;;4985996;28;20221;-70
2023/04/11 06:17:44;;;;;;;0.65;0.65;;;19.60;50.30;;;;;;4992404;28;20196;-70
2023/04/11 06:20:10;;;;;;;0.70;0.70;;;19.60;50.30;;;;;;4979135;28;20212;-70
2023/04/11 06:22:38;;;;;;;0.70;0.70;;;19.60;50.30;;;;;;5001913;28;20192;-70
2023/04/11 06:25:07;;;;;;;0.60;0.60;;;19.60;50.30;;;;;;4993073;28;20192;-70
2023/04/11 06:27:33;;;;;;;0.70;0.70;;;19.60;50.20;;;;;;4946333;28;20213;-70
2023/04/11 06:29:59;;;;;;;0.77;0.70;;;19.60;50.90;;;;;;4961546;28;20732;-70
2023/04/11 06:32:25;;;;;;;0.75;0.75;;;19.60;50.20;;;;;;4986817;28;20209;-70
2023/04/11 06:34:51;;;;;;;0.70;0.70;;;19.60;50.20;;;;;;4991359;28;20184;-70
2023/04/11 06:37:17;;;;;;;0.60;0.60;;;19.50;50.20;;;;;;4981083;28;20192;-70
2023/04/11 06:39:42;;;;;;;1.05;0.82;;;19.60;50.20;;;;;;4986512;28;20189;-70
2023/04/11 06:42:08;;;;;;;0.70;0.70;;;19.60;50.30;;;;;;4985230;28;20322;-70
2023/04/11 06:44:34;;;;;;;0.70;0.70;;;19.50;50.20;;;;;;4985289;28;20207;-70
2023/04/11 06:47:00;;;;;;;0.80;0.80;;;19.50;50.20;;;;;;4969233;28;20199;-70
2023/04/11 06:49:27;;;;;;;0.63;0.63;;;19.60;50.20;;;;;;4985216;28;20188;-70
2023/04/11 06:51:53;;;;;;;0.80;0.80;;;19.50;50.20;;;;;;4986311;28;20252;-70
2023/04/11 06:54:19;;;;;;;0.70;0.70;;;19.50;50.20;;;;;;4979347;28;20259;-70
2023/04/11 06:56:46;;;;;;;0.68;0.68;;;19.50;50.20;;;;;;4989758;28;20189;-70
2023/04/11 06:59:12;;;;;;;0.70;0.70;;;19.50;50.20;;;;;;4981693;28;20197;-70
2023/04/11 07:01:38;;;;;;;0.82;0.80;;;19.50;50.20;;;;;;4981963;28;20217;-70
2023/04/11 07:04:07;;;;;;;0.60;0.60;;;19.50;50.20;;;;;;4989218;28;20189;-70
2023/04/11 07:06:34;;;;;;;0.80;0.80;;;19.50;50.20;;;;;;4973604;28;20201;-70
2023/04/11 07:09:04;;;;;;;0.60;0.60;;;19.50;50.20;;;;;;4992703;28;20217;-70
2023/04/11 07:11:31;;;;;;;0.50;0.50;;;19.50;50.20;;;;;;4976232;28;20213;-70
2023/04/11 07:13:59;;;;;;;0.60;0.60;;;19.50;50.20;;;;;;4992972;28;20189;-70
2023/04/11 07:16:25;;;;;;;0.40;0.40;;;19.50;50.20;;;;;;4992900;28;20192;-70
2023/04/11 07:18:52;;;;;;;0.70;0.70;;;19.50;50.20;;;;;;4976352;28;20580;-70
2023/04/11 07:21:18;;;;;;;0.80;0.80;;;19.50;50.30;;;;;;4991955;28;20211;-70
2023/04/11 07:23:44;;;;;;;0.60;0.60;;;19.50;50.20;;;;;;4994068;28;20201;-71
2023/04/11 07:26:11;;;;;;;0.80;0.80;;;19.50;50.20;;;;;;4992531;28;20200;-71
2023/04/11 07:28:39;;;;;;;0.68;0.68;;;19.50;50.20;;;;;;4984497;28;20216;-70
2023/04/11 07:31:10;;;;;;;0.55;0.50;;;19.50;50.20;;;;;;4990163;28;20217;-70
2023/04/11 07:33:36;;;;;;;0.90;0.75;;;19.50;50.20;;;;;;4990011;28;20256;-70
2023/04/11 07:36:06;;;;;;;0.75;0.75;;;19.50;50.30;;;;;;4991452;28;20192;-70
2023/04/11 07:38:33;;;;;;;0.50;0.50;;;19.50;50.20;;;;;;4993607;28;20196;-70
2023/04/11 07:41:01;;;;;;;0.88;0.88;;;19.50;50.20;;;;;;4988904;28;20213;-70
2023/04/11 07:43:28;;;;;;;0.70;0.50;;;19.50;50.20;;;;;;4980947;28;20736;-70
2023/04/11 07:45:56;;;;;;;0.55;0.45;;;19.50;50.30;;;;;;4972187;28;20279;-70
2023/04/11 07:48:24;;;;;;;0.70;0.70;;;19.50;50.30;;;;;;4970388;28;20220;-70
2023/04/11 07:50:51;;;;;;;0.68;0.68;;;19.50;50.30;;;;;;4968142;28;20283;-70
2023/04/11 07:53:16;;;;;;;0.60;0.60;;;19.40;50.20;;;;;;4988221;28;20240;-70
2023/04/11 07:55:42;;;;;;;0.80;0.80;;;19.50;50.30;;;;;;4973310;28;20193;-71
2023/04/11 07:58:08;;;;;;;0.75;0.75;;;19.50;50.30;;;;;;4993258;28;20188;-71
2023/04/11 08:00:34;;;;;;;0.60;0.60;;;19.50;50.30;;;;;;4975648;28;20212;-70
2023/04/11 08:03:06;;;;;;;0.65;0.65;;;19.50;50.30;;;;;;4975720;28;20243;-70
2023/04/11 08:05:34;;;;;;;0.80;0.47;;;19.50;50.30;;;;;;4967770;28;20196;-70
2023/04/11 08:08:01;;;;;;;0.65;0.65;;;19.50;50.20;;;;;;4989197;28;20210;-70
2023/04/11 08:10:27;;;;;;;0.70;0.70;;;19.50;50.20;;;;;;4980411;28;20225;-70
2023/04/11 08:12:54;;;;;;;0.80;0.80;;;19.50;50.20;;;;;;4982981;28;20196;-70
2023/04/11 08:15:20;;;;;;;0.50;0.50;;;19.50;50.10;;;;;;4969497;28;20518;-70
2023/04/11 08:17:48;;;;;;;1.50;0.80;;;19.50;50.10;;;;;;4981049;28;20260;-70
2023/04/11 08:20:15;;;;;;;0.60;0.60;;;19.60;50.20;;;;;;4992967;28;20197;-70
2023/04/11 08:22:43;;;;;;;0.95;0.90;;;19.60;50.20;;;;;;5006635;28;20425;-70
2023/04/11 08:25:11;;;;;;;0.63;0.63;;;19.60;50.20;;;;;;4984398;28;20188;-70
2023/04/11 08:27:38;;;;;;;0.60;0.60;;;19.60;50.10;;;;;;5007875;28;20216;-70
2023/04/11 08:30:07;;;;;;;0.60;0.60;;;19.60;50.10;;;;;;4988272;28;20279;-70
2023/04/11 08:32:34;;;;;;;0.68;0.63;;;19.60;50.10;;;;;;4978822;28;20200;-70
2023/04/11 08:35:00;;;;;;;0.60;0.60;;;19.60;50.20;;;;;;4967418;28;20193;-70
2023/04/11 08:37:27;;;;;;;0.60;0.60;;;19.60;50.20;;;;;;4991437;28;20192;-70
2023/04/11 08:39:52;;;;;;;0.73;0.73;;;19.60;50.10;;;;;;4991420;28;20184;-70
2023/04/11 08:42:27;;;;;;;0.82;0.80;;;19.60;50.10;;;;;;4992364;28;20212;-70
2023/04/11 08:44:58;;;;;;;0.82;0.68;;;19.50;50.10;;;;;;4975014;28;20199;-70
2023/04/11 08:47:25;;;;;;;0.60;0.60;;;19.50;50.20;;;;;;4991032;28;20220;-70
2023/04/11 08:49:52;;;;;;;1.00;0.90;;;19.60;50.20;;;;;;4990099;28;20189;-70
2023/04/11 08:52:19;;;;;;;0.73;0.70;;;19.60;50.20;;;;;;4971537;28;20228;-70
2023/04/11 08:54:55;;;;;;;0.70;0.70;;;19.60;50.20;;;;;;4980294;28;20194;-70
2023/04/11 08:57:27;;;;;;;0.77;0.77;;;19.60;50.20;;;;;;4978041;28;20191;-70
2023/04/11 08:59:55;;;;;;;0.60;0.60;;;19.60;50.10;;;;;;4987818;28;20676;-69
2023/04/11 09:02:21;;;;;;;1.40;0.88;;;19.60;50.10;;;;;;4968402;28;20263;-70
2023/04/11 09:04:47;;;;;;;0.63;0.63;;;19.60;50.10;;;;;;4966853;28;20197;-70
2023/04/11 09:07:15;;;;;;;0.70;0.70;;;19.60;50.10;;;;;;4971631;28;20700;-70
2023/04/11 09:09:42;;;;;;;0.60;0.60;;;19.60;50.00;;;;;;4979602;28;20199;-70
2023/04/11 09:12:08;;;;;;;0.70;0.70;;;19.60;50.10;;;;;;4990934;28;20356;-70
2023/04/11 09:14:33;;;;;;;0.80;0.80;;;19.60;50.10;;;;;;4984298;28;20271;-70
2023/04/11 09:17:03;;;;;;;0.57;0.52;;;19.70;50.70;;;;;;4992356;28;20195;-70
2023/04/11 09:19:33;;;;;;;0.95;0.70;;;19.60;50.00;;;;;;4977371;28;20233;-70
2023/04/11 09:22:04;;;;;;;0.70;0.70;;;19.60;50.10;;;;;;4989200;28;20301;-70
2023/04/11 09:24:30;;;;;;;0.52;0.52;;;19.70;50.10;;;;;;4983349;28;20225;-70
2023/04/11 09:27:13;;;;;;;0.73;0.73;;;19.60;50.00;;;;;;4983105;28;20186;-70
2023/04/11 09:29:41;;;;;;;0.80;0.80;;;19.60;50.10;;;;;;4991114;28;20197;-70
2023/04/11 09:32:28;;;;;;;0.90;0.73;;;19.60;50.00;;;;;;4980893;28;20198;-70
2023/04/11 09:35:24;;;;;;;1.08;0.70;;;19.70;50.10;;;;;;4971700;28;20189;-70
2023/04/11 09:37:58;;;;;;;0.80;0.75;;;19.70;50.10;;;;;;4980153;28;20193;-70
2023/04/11 09:40:30;;;;;;;1.50;0.60;;;19.70;50.30;;;;;;4990963;28;21031;-70
2023/04/11 09:42:59;;;;;;;0.77;0.77;;;19.70;50.10;;;;;;4982352;28;20197;-70
2023/04/11 09:45:26;;;;;;;1.15;0.82;;;19.70;50.10;;;;;;4984520;28;20189;-70
2023/04/11 09:47:57;;;;;;;1.33;0.60;;;19.70;50.20;;;;;;4974506;28;20213;-69
2023/04/11 09:50:25;;;;;;;1.65;0.70;;;19.70;50.20;;;;;;4982591;28;20567;-70
2023/04/11 09:52:56;;;;;;;0.70;0.70;;;19.70;50.10;;;;;;4982480;28;20193;-70
2023/04/11 09:55:24;;;;;;;0.65;0.63;;;19.70;50.00;;;;;;4990789;28;20189;-70
2023/04/11 09:57:53;;;;;;;0.93;0.80;;;19.70;50.00;;;;;;4990710;28;20196;-70
2023/04/11 10:00:31;;;;;;;0.77;0.60;;;19.70;50.10;;;;;;4992298;28;20192;-70
2023/04/11 10:02:57;;;;;;;1.10;0.80;;;19.70;50.10;;;;;;4993963;28;20208;-70
2023/04/11 10:05:29;;;;;;;1.70;0.80;;;19.70;50.00;;;;;;4995413;28;20181;-70
2023/04/11 10:08:06;;;;;;;0.75;0.60;;;19.70;50.00;;;;;;4994011;28;20217;-70
2023/04/11 10:10:34;;;;;;;1.02;0.80;;;19.70;49.90;;;;;;4977721;28;20258;-70
2023/04/11 10:13:00;;;;;;;1.05;0.70;;;19.70;49.90;;;;;;4994981;28;20185;-70
2023/04/11 10:15:26;;;;;;;0.80;0.80;;;19.70;50.00;;;;;;4993850;28;20173;-70
2023/04/11 10:18:12;;;;;;;1.10;0.90;;;19.70;50.20;;;;;;4995028;28;20526;-70
2023/04/11 10:20:49;;;;;;;0.70;0.70;;;19.80;50.00;;;;;;4993803;28;20223;-70
2023/04/11 10:23:15;;;;;;;0.73;0.60;;;19.70;49.90;;;;;;4974767;28;20221;-70
2023/04/11 10:25:49;;;;;;;1.00;0.60;;;19.70;50.00;;;;;;4974409;28;20205;-70
2023/04/11 10:28:38;;;;;;;1.45;0.70;;;19.70;49.90;;;;;;4971978;28;20217;-70
2023/04/11 10:31:12;;;;;;;0.70;0.50;;;19.70;49.90;;;;;;4984474;28;20209;-70
2023/04/11 10:33:59;;;;;;;0.98;0.55;;;19.70;49.90;;;;;;4981281;28;20188;-70
2023/04/11 10:36:25;;;;;;;1.25;0.90;;;19.70;49.90;;;;;;4988716;28;20190;-70
2023/04/11 10:38:52;;;;;;;1.05;0.93;;;19.80;50.00;;;;;;4982740;28;20267;-70
2023/04/11 10:41:30;;;;;;;0.70;0.70;;;19.70;49.90;;;;;;4976800;28;20212;-70
2023/04/11 10:44:19;;;;;;;0.73;0.73;;;19.70;49.90;;;;;;4977121;28;20200;-70
2023/04/11 10:46:48;;;;;;;0.85;0.82;;;19.70;49.90;;;;;;4986063;28;20243;-70
2023/04/11 10:49:36;;;;;;;1.10;0.60;;;19.70;49.90;;;;;;4985423;28;20217;-70
2023/04/11 10:52:36;;;;;;;0.70;0.70;;;19.70;49.90;;;;;;4994093;28;20441;-70
2023/04/11 10:55:18;;;;;;;1.45;1.02;;;19.70;50.00;;;;;;4994274;28;20196;-70
2023/04/11 10:58:07;;;;;;;0.85;0.70;;;19.70;50.10;;;;;;4993239;28;20196;-70
2023/04/11 11:00:54;;;;;;;1.42;0.88;;;19.70;50.00;;;;;;4982915;28;20293;-70
2023/04/11 11:03:24;;;;;;;1.25;0.80;;;19.70;49.90;;;;;;4993110;28;20193;-70
2023/04/11 11:06:01;;;;;;;0.90;0.73;;;19.80;50.00;;;;;;4994268;28;20212;-70
2023/04/11 11:08:33;;;;;;;0.88;0.82;;;19.70;49.90;;;;;;4994153;28;20208;-70
2023/04/11 11:11:07;;;;;;;0.93;0.80;;;19.80;49.90;;;;;;4992808;28;20278;-69
2023/04/11 11:13:52;;;;;;;0.60;0.60;;;19.80;49.90;;;;;;4994152;28;20192;-70
2023/04/11 11:16:25;;;;;;;1.00;0.80;;;19.80;50.60;;;;;;4994022;28;20189;-70
2023/04/11 11:18:57;;;;;;;0.70;0.70;;;19.80;49.90;;;;;;4994041;28;20635;-70
2023/04/11 11:21:26;;;;;;;0.70;0.70;;;19.80;49.90;;;;;;4978097;28;20565;-70
2023/04/11 11:24:01;;;;;;;0.70;0.70;;;19.80;49.80;;;;;;4992767;28;20292;-70
2023/04/11 11:26:43;;;;;;;0.85;0.60;;;19.80;49.90;;;;;;5009394;28;20188;-70
2023/04/11 11:29:10;;;;;;;1.08;0.70;;;19.80;49.90;;;;;;4992655;28;20225;-70
2023/04/11 11:31:38;;;;;;;0.70;0.70;;;19.80;49.90;;;;;;4968283;28;20205;-70
2023/04/11 11:34:05;;;;;;;0.95;0.73;;;19.80;50.00;;;;;;4993559;28;20212;-70
2023/04/11 11:36:40;;;;;;;0.63;0.60;;;19.80;49.90;;;;;;4993729;28;20193;-70
2023/04/11 11:39:09;;;;;;;0.77;0.65;;;19.80;50.10;;;;;;4984345;28;20205;-70
2023/04/11 11:41:35;;;;;;;0.70;0.70;;;19.80;49.80;;;;;;4970478;28;20218;-70
2023/04/11 11:44:03;;;;;;;1.00;0.73;;;19.80;49.80;;;;;;4989990;28;20233;-70
2023/04/11 11:46:32;;;;;;;1.15;0.82;;;19.80;49.80;;;;;;4992433;28;20207;-70
2023/04/11 11:49:01;;;;;;;1.73;0.82;;;19.80;49.80;;;;;;4976466;28;20213;-70
2023/04/11 11:51:39;;;;;;;0.85;0.50;;;19.80;49.70;;;;;;4980729;28;20221;-70
2023/04/11 11:54:08;;;;;;;0.60;0.60;;;19.80;49.80;;;;;;4963289;28;20281;-70
2023/04/11 11:56:39;;;;;;;0.60;0.60;;;19.80;49.70;;;;;;4979754;28;20280;-70
2023/04/11 11:59:06;;;;;;;0.63;0.63;;;19.80;49.80;;;;;;4990910;28;20199;-70
2023/04/11 12:01:33;;;;;;;0.77;0.77;;;19.80;49.80;;;;;;4970628;28;20216;-70
2023/04/11 12:04:00;;;;;;;0.82;0.82;;;19.80;49.80;;;;;;4988435;28;20188;-70
2023/04/11 12:06:32;;;;;;;0.63;0.63;;;19.80;49.80;;;;;;4980529;28;20225;-70
2023/04/11 12:09:09;;;;;;;0.50;0.50;;;19.80;49.70;;;;;;4980362;28;20221;-70
2023/04/11 12:11:41;;;;;;;0.50;0.50;;;19.80;49.60;;;;;;4961856;28;20213;-70
2023/04/11 12:14:08;;;;;;;0.70;0.70;;;19.80;49.60;;;;;;4967894;28;20209;-70
2023/04/11 12:16:37;;;;;;;0.70;0.70;;;19.80;49.60;;;;;;4984892;28;20331;-70
2023/04/11 12:19:04;;;;;;;0.70;0.70;;;19.80;49.60;;;;;;4961490;28;20201;-70
2023/04/11 12:21:30;;;;;;;0.65;0.65;;;19.80;49.60;;;;;;4983100;28;20295;-70
2023/04/11 12:23:56;;;;;;;0.70;0.60;;;19.80;49.70;;;;;;4991269;28;20193;-70
2023/04/11 12:26:24;;;;;;;0.80;0.80;;;19.80;49.60;;;;;;4983813;28;20193;-70
2023/04/11 12:28:50;;;;;;;0.50;0.50;;;19.80;49.40;;;;;;4983609;28;20299;-70
2023/04/11 12:31:16;;;;;;;0.95;0.68;;;19.80;50.10;;;;;;4981642;28;20268;-70
2023/04/11 12:33:43;;;;;;;0.60;0.60;;;19.80;49.40;;;;;;4980483;28;20189;-70
2023/04/11 12:36:09;;;;;;;0.98;0.80;;;19.80;49.50;;;;;;4981686;28;20190;-70
2023/04/11 12:38:35;;;;;;;1.38;0.75;;;19.80;49.50;;;;;;4992942;28;20207;-70
2023/04/11 12:41:01;;;;;;;1.13;0.60;;;19.80;49.50;;;;;;4975036;28;20217;-70
2023/04/11 12:43:26;;;;;;;0.70;0.70;;;19.80;49.50;;;;;;4987291;28;20225;-70
2023/04/11 12:45:52;;;;;;;0.73;0.57;;;19.80;49.40;;;;;;4971573;28;20207;-70
2023/04/11 12:48:18;;;;;;;0.85;0.80;;;19.80;49.30;;;;;;4980273;28;20217;-70
2023/04/11 12:50:44;;;;;;;0.70;0.70;;;19.80;49.40;;;;;;4971639;28;20276;-70
2023/04/11 12:53:10;;;;;;;0.70;0.70;;;19.80;49.40;;;;;;4973463;28;20194;-70
2023/04/11 12:55:36;;;;;;;0.50;0.50;;;19.80;49.40;;;;;;4991390;28;20253;-70